createdAt,value
2022-08-09T00:02:31.132Z,3.80
2022-08-09T00:07:44.457Z,3.80
2022-08-09T00:12:51.654Z,3.80
2022-08-09T00:18:07.523Z,3.92
2022-08-09T00:23:56.724Z,4.38
2022-08-09T00:28:39.717Z,4.17
2022-08-09T00:33:51.084Z,4.53
2022-08-09T00:38:54.700Z,4.38
2022-08-09T00:44:11.766Z,4.10
2022-08-09T00:49:21.797Z,4.50
2022-08-09T00:54:31.421Z,4.38
2022-08-09T00:59:40.906Z,5.20
2022-08-09T01:04:54.240Z,4.77
2022-08-09T01:10:03.906Z,4.10
2022-08-09T01:15:17.010Z,4.32
2022-08-09T01:20:25.909Z,4.00
2022-08-09T01:25:49.001Z,4.25
2022-08-09T01:30:59.164Z,4.05
2022-08-09T01:36:07.083Z,3.87
2022-08-09T01:41:15.112Z,4.20
2022-08-09T01:46:26.419Z,4.38
2022-08-09T01:51:32.492Z,4.40
2022-08-09T01:56:40.699Z,3.90
2022-08-09T02:01:59.088Z,3.97
2022-08-09T02:07:18.521Z,4.22
2022-08-09T02:12:34.929Z,4.00
2022-08-09T02:18:00.535Z,4.45
2022-08-09T02:23:08.950Z,3.88
2022-08-09T02:28:18.335Z,4.17
2022-08-09T02:33:38.397Z,3.90
2022-08-09T02:38:54.058Z,4.07
2022-08-09T02:44:10.568Z,3.80
2022-08-09T02:49:27.296Z,3.80
2022-08-09T02:54:54.578Z,4.43
2022-08-09T03:00:20.933Z,3.80
2022-08-09T03:05:27.690Z,4.00
2022-08-09T03:10:31.022Z,4.25
2022-08-09T03:16:04.591Z,4.40
2022-08-09T03:21:00.570Z,4.40
2022-08-09T03:26:05.156Z,4.20
2022-08-09T03:31:10.507Z,4.55
2022-08-09T03:36:27.374Z,4.70
2022-08-09T03:41:48.410Z,4.50
2022-08-09T03:46:52.025Z,4.80
2022-08-09T03:52:00.294Z,4.38
2022-08-09T03:57:18.120Z,4.80
2022-08-09T04:02:26.428Z,4.90
2022-08-09T04:07:52.281Z,4.90
2022-08-09T04:13:01.084Z,4.87
2022-08-09T04:18:08.570Z,4.78
2022-08-09T04:23:17.405Z,5.63
2022-08-09T04:28:30.810Z,5.87
2022-08-09T04:33:53.207Z,7.33
2022-08-09T04:39:04.716Z,6.63
2022-08-09T04:44:11.984Z,7.60
2022-08-09T04:49:17.378Z,6.53
2022-08-09T04:54:34.862Z,8.95
2022-08-09T04:59:38.080Z,8.50
2022-08-09T05:04:41.099Z,9.33
2022-08-09T05:09:49.891Z,8.63
2022-08-09T05:14:53.012Z,6.70
2022-08-09T05:19:56.832Z,10.13
2022-08-09T05:25:02.669Z,9.90
2022-08-09T05:30:06.417Z,8.48
2022-08-09T05:35:11.284Z,9.30
2022-08-09T05:40:16.595Z,9.47
2022-08-09T05:45:21.264Z,10.55
2022-08-09T05:50:50.639Z,11.55
2022-08-09T05:55:53.149Z,10.00
2022-08-09T06:00:58.212Z,9.25
2022-08-09T06:06:05.859Z,7.47
2022-08-09T06:11:16.359Z,6.70
2022-08-09T06:16:22.184Z,6.27
2022-08-09T06:21:25.018Z,6.53
2022-08-09T06:26:29.926Z,5.60
2022-08-09T06:31:40.251Z,4.63
2022-08-09T06:36:59.666Z,5.20
2022-08-09T06:42:08.684Z,4.55
2022-08-09T06:47:14.288Z,5.97
2022-08-09T06:52:17.866Z,3.83
2022-08-09T06:57:42.541Z,3.70
2022-08-09T07:02:45.900Z,3.73
2022-08-09T07:08:00.450Z,4.10
2022-08-09T07:13:28.357Z,3.53
2022-08-09T07:18:29.030Z,3.63
2022-08-09T07:23:36.260Z,3.40
2022-08-09T07:29:08.935Z,4.00
2022-08-09T07:33:58.286Z,3.63
2022-08-09T07:39:03.037Z,3.40
2022-08-09T07:44:07.404Z,3.45
2022-08-09T07:49:15.471Z,3.80
2022-08-09T07:54:19.149Z,3.53
2022-08-09T07:59:34.370Z,3.33
2022-08-09T08:04:54.050Z,3.33
2022-08-09T08:10:07.787Z,3.65
2022-08-09T08:15:16.697Z,3.30
2022-08-09T08:20:29.111Z,3.25
2022-08-09T08:25:44.070Z,3.20
2022-08-09T08:30:50.274Z,3.40
2022-08-09T08:36:00.155Z,3.40
2022-08-09T08:41:05.763Z,3.13
2022-08-09T08:46:33.112Z,3.30
2022-08-09T08:51:41.524Z,3.30
2022-08-09T08:57:00.572Z,2.95
2022-08-09T09:02:07.250Z,2.72
2022-08-09T09:07:12.557Z,2.70
2022-08-09T09:12:17.190Z,2.53
2022-08-09T09:17:21.461Z,2.80
2022-08-09T09:22:28.886Z,2.50
2022-08-09T09:28:05.728Z,2.40
2022-08-09T09:33:15.912Z,2.25
2022-08-09T09:38:27.904Z,2.20
2022-08-09T09:43:41.643Z,2.10
2022-08-09T09:49:07.650Z,2.28
2022-08-09T09:54:20.621Z,1.80
2022-08-09T09:59:36.896Z,1.90
2022-08-09T10:04:41.753Z,1.90
2022-08-09T10:09:48.709Z,2.10
2022-08-09T10:14:52.022Z,2.10
2022-08-09T10:19:57.264Z,2.17
2022-08-09T10:25:12.171Z,2.13
2022-08-09T10:35:44.385Z,2.13
2022-08-09T10:40:50.099Z,2.20
2022-08-09T10:45:59.809Z,2.60
2022-08-09T10:51:16.572Z,2.00
2022-08-09T10:56:23.341Z,2.17
2022-08-09T11:03:12.075Z,2.40
2022-08-09T11:07:57.811Z,2.37
2022-08-09T11:13:49.478Z,2.33
2022-08-09T11:18:45.096Z,2.13
2022-08-09T11:24:01.519Z,2.30
2022-08-09T11:29:07.130Z,2.40
2022-08-09T11:34:18.725Z,2.00
2022-08-09T11:39:24.210Z,2.10
2022-08-09T11:44:45.201Z,2.07
2022-08-09T11:50:54.842Z,2.17
2022-08-09T11:55:51.949Z,2.25
2022-08-09T12:00:59.939Z,2.03
2022-08-09T12:06:10.027Z,2.05
2022-08-09T12:11:16.010Z,2.00
2022-08-09T12:16:37.487Z,2.10
2022-08-09T12:21:48.832Z,2.30
2022-08-09T12:29:13.478Z,2.00
2022-08-09T12:32:27.487Z,2.00
2022-08-09T12:37:44.047Z,2.03
2022-08-09T12:42:55.712Z,1.90
2022-08-09T12:47:59.405Z,1.90
2022-08-09T12:53:09.628Z,2.00
2022-08-09T12:58:24.348Z,1.90
2022-08-09T13:03:53.289Z,1.92
2022-08-09T13:09:11.106Z,1.70
2022-08-09T13:14:40.762Z,1.60
2022-08-09T13:20:07.574Z,1.70
2022-08-09T13:25:11.914Z,1.70
2022-08-09T13:31:11.156Z,1.80
2022-08-09T13:36:37.869Z,1.92
2022-08-09T13:41:51.669Z,1.65
2022-08-09T13:47:17.762Z,1.87
2022-08-09T13:52:00.975Z,1.80
2022-08-09T13:57:06.410Z,1.70
2022-08-09T14:02:11.015Z,2.10
2022-08-09T14:07:13.942Z,1.70
2022-08-09T14:12:17.327Z,1.95
2022-08-09T14:17:22.808Z,1.52
2022-08-09T14:22:26.158Z,1.77
2022-08-09T14:27:34.011Z,1.88
2022-08-09T14:32:38.619Z,1.90
2022-08-09T14:38:02.295Z,1.83
2022-08-09T14:43:04.567Z,1.45
2022-08-09T14:48:08.770Z,1.55
2022-08-09T14:53:14.450Z,1.60
2022-08-09T14:58:20.190Z,1.60
2022-08-09T15:03:24.421Z,1.67
2022-08-09T15:08:30.360Z,1.60
2022-08-09T15:13:48.416Z,1.70
2022-08-09T15:18:59.706Z,1.75
2022-08-09T15:24:13.059Z,1.60
2022-08-09T15:30:55.521Z,1.80
2022-08-09T15:34:44.613Z,1.90
2022-08-09T15:39:53.798Z,1.63
2022-08-09T15:44:58.348Z,1.80
2022-08-09T15:50:05.404Z,1.60
2022-08-09T15:55:10.883Z,1.70
2022-08-09T16:00:24.717Z,1.58
2022-08-09T16:05:47.123Z,1.70
2022-08-09T16:10:56.411Z,1.65
2022-08-09T16:16:10.960Z,1.75
2022-08-09T16:21:25.801Z,1.60
2022-08-09T16:26:34.555Z,1.80
2022-08-09T16:32:19.085Z,1.90
2022-08-09T16:37:04.065Z,1.60
2022-08-09T16:42:11.030Z,1.83
2022-08-09T16:48:40.065Z,1.67
2022-08-09T16:52:43.086Z,1.92
2022-08-09T16:58:09.321Z,1.70
2022-08-09T17:03:09.221Z,1.80
2022-08-09T17:08:42.774Z,1.90
2022-08-09T17:14:01.661Z,1.70
2022-08-09T17:19:05.499Z,1.92
2022-08-09T17:24:26.901Z,1.90
2022-08-09T17:29:37.888Z,1.60
2022-08-09T17:35:04.116Z,1.70
2022-08-09T17:40:18.103Z,1.80
2022-08-09T17:45:27.208Z,1.85
2022-08-09T17:50:37.014Z,1.90
2022-08-09T17:55:48.844Z,1.90
2022-08-09T18:00:56.273Z,1.70
2022-08-09T18:06:00.875Z,1.90
2022-08-09T18:11:05.357Z,1.80
2022-08-09T18:16:10.710Z,1.77
2022-08-09T18:21:22.795Z,1.67
2022-08-09T18:26:28.044Z,4.00
2022-08-09T18:31:51.468Z,2.28
2022-08-09T18:36:54.215Z,3.58
2022-08-09T18:41:58.800Z,1.90
2022-08-09T18:47:08.074Z,2.00
2022-08-09T18:52:18.780Z,1.73
2022-08-09T18:57:43.379Z,1.83
2022-08-09T19:02:48.019Z,1.70
2022-08-09T19:08:04.190Z,1.90
2022-08-09T19:13:19.269Z,1.80
2022-08-09T19:18:33.198Z,2.70
2022-08-09T19:24:39.447Z,2.78
2022-08-09T19:29:15.564Z,1.90
2022-08-09T19:34:24.797Z,2.00
2022-08-09T19:40:02.298Z,2.20
2022-08-09T19:44:53.625Z,2.60
2022-08-09T19:50:08.544Z,2.20
2022-08-09T19:55:19.723Z,2.45
2022-08-09T20:00:35.201Z,2.40
2022-08-09T20:05:46.690Z,1.97
2022-08-09T20:10:53.402Z,2.20
2022-08-09T20:16:37.175Z,2.00
2022-08-09T20:21:22.104Z,1.95
2022-08-09T20:26:43.722Z,2.13
2022-08-09T20:32:16.996Z,2.25
2022-08-09T20:37:12.897Z,2.00
2022-08-09T20:42:16.963Z,2.20
2022-08-09T20:47:45.241Z,2.10
2022-08-09T20:52:45.196Z,2.15
2022-08-09T20:58:08.433Z,2.23
2022-08-09T21:03:12.377Z,2.40
2022-08-09T21:08:22.441Z,2.33
2022-08-09T21:13:45.951Z,2.30
2022-08-09T21:20:19.055Z,2.20
2022-08-09T21:24:28.559Z,2.72
2022-08-09T21:29:48.506Z,2.40
2022-08-09T21:34:53.437Z,2.20
2022-08-09T21:39:56.389Z,2.50
2022-08-09T21:44:59.349Z,2.67
2022-08-09T21:50:03.758Z,2.27
2022-08-09T21:55:08.423Z,2.53
2022-08-09T22:00:25.305Z,2.63
2022-08-09T22:05:35.973Z,2.25
2022-08-09T22:11:00.749Z,2.10
2022-08-09T22:16:03.944Z,2.60
2022-08-09T22:21:09.210Z,2.63
2022-08-09T22:26:12.951Z,2.87
2022-08-09T22:31:35.894Z,2.60
2022-08-09T22:36:45.788Z,2.60
2022-08-09T22:41:49.305Z,2.57
2022-08-09T22:48:13.804Z,2.90
2022-08-09T22:52:17.711Z,2.38
2022-08-09T22:57:22.572Z,2.60
2022-08-09T23:02:34.669Z,2.60
2022-08-09T23:08:22.097Z,2.97
2022-08-09T23:13:23.916Z,3.05
2022-08-09T23:18:26.824Z,3.20
2022-08-09T23:23:31.084Z,3.10
2022-08-09T23:28:34.004Z,3.08
2022-08-09T23:33:36.983Z,3.07
2022-08-09T23:38:48.847Z,2.67
2022-08-09T23:43:55.107Z,2.85
2022-08-09T23:48:58.588Z,2.80
2022-08-09T23:54:03.625Z,2.93
2022-08-09T23:59:06.589Z,2.80
